Time;durP1;ratioP1;P1;durP2;ratioP2;P2;SDS_P1;SDS_P2;PMS_P1;PMS_P2;Temp;Humidity;BMP_temperature;BMP_pressure;BME280_temperature;BME280_humidity;BME280_pressure;Samples;Min_cycle;Max_cycle;Signal;HPM_P1;HPM_P2
2022/10/18 00:03:01;;;;;;;;;;;20.90;51.80;;;;;;8363379;28;19921;-44
2022/10/18 00:07:02;;;;;;;;;;;20.80;51.80;;;;;;8363767;28;20309;-45
2022/10/18 00:11:02;;;;;;;;;;;20.80;51.70;;;;;;8363625;28;19917;-44
2022/10/18 00:15:04;;;;;;;;;;;20.80;51.70;;;;;;8363095;28;20421;-46
2022/10/18 00:19:04;;;;;;;;;;;20.90;51.80;;;;;;8363404;28;19924;-45
2022/10/18 00:23:05;;;;;;;;;;;20.80;51.80;;;;;;8363720;28;19912;-44
2022/10/18 00:27:05;;;;;;;;;;;20.80;51.80;;;;;;8362985;28;19925;-43
2022/10/18 00:31:23;;;;;;;;;;;20.80;51.70;;;;;;8363271;28;19917;-45
2022/10/18 00:35:23;;;;;;;;;;;20.80;51.80;;;;;;8363292;28;19923;-44
2022/10/18 00:39:24;;;;;;;;;;;20.80;51.80;;;;;;8362623;28;20309;-45
2022/10/18 00:43:24;;;;;;;;;;;20.80;51.80;;;;;;8363034;28;19913;-44
2022/10/18 00:47:25;;;;;;;;;;;20.80;51.80;;;;;;8363267;28;19950;-44
2022/10/18 00:51:29;;;;;;;;;;;20.80;51.90;;;;;;8362529;28;19917;-45
2022/10/18 00:55:30;;;;;;;;;;;20.80;51.80;;;;;;8366597;28;20304;-43
2022/10/18 00:59:31;;;;;;;;;;;20.70;51.80;;;;;;8369532;28;19927;-45
2022/10/18 01:03:31;;;;;;;;;;;20.70;51.80;;;;;;8367949;28;19920;-46
2022/10/18 01:07:51;;;;;;;;;;;20.70;51.80;;;;;;8369513;28;20374;-45
2022/10/18 01:12:00;;;;;;;;;;;20.70;51.80;;;;;;8368701;28;19975;-43
2022/10/18 01:16:11;;;;;;;;;;;20.80;51.80;;;;;;8368938;28;19920;-43
2022/10/18 01:20:11;;;;;;;;;;;20.70;51.80;;;;;;8368908;28;20380;-44
2022/10/18 01:24:31;;;;;;;;;;;20.70;51.80;;;;;;8368309;28;19917;-44
2022/10/18 01:28:37;;;;;;;;;;;20.70;51.80;;;;;;8368682;28;19932;-44
2022/10/18 01:32:43;;;;;;;;;;;20.70;51.80;;;;;;8368656;28;19971;-45
2022/10/18 01:36:48;;;;;;;;;;;20.70;51.80;;;;;;8367911;28;19944;-44
2022/10/18 01:40:49;;;;;;;;;;;20.70;51.80;;;;;;8368332;28;19939;-44
2022/10/18 01:44:51;;;;;;;;;;;20.70;51.90;;;;;;8367634;28;19913;-45
2022/10/18 01:48:52;;;;;;;;;;;20.70;51.80;;;;;;8367893;28;20321;-44
2022/10/18 01:52:52;;;;;;;;;;;20.70;51.90;;;;;;8368125;28;19917;-45
2022/10/18 01:57:05;;;;;;;;;;;20.60;51.80;;;;;;8367323;28;19924;-44
2022/10/18 02:01:09;;;;;;;;;;;20.70;51.90;;;;;;8367980;28;19979;-45
2022/10/18 02:05:20;;;;;;;;;;;20.60;51.80;;;;;;8366970;28;19921;-45
2022/10/18 02:09:27;;;;;;;;;;;20.70;51.80;;;;;;8366693;28;20378;-45
2022/10/18 02:13:31;;;;;;;;;;;20.60;51.90;;;;;;8367500;28;19974;-44
2022/10/18 02:17:31;;;;;;;;;;;20.60;51.80;;;;;;8367078;28;20003;-43
2022/10/18 02:21:32;;;;;;;;;;;20.60;51.80;;;;;;8366412;28;19939;-44
2022/10/18 02:25:34;;;;;;;;;;;20.60;51.90;;;;;;8366760;28;19981;-45
2022/10/18 02:29:34;;;;;;;;;;;20.60;51.80;;;;;;8366733;28;19999;-46
2022/10/18 02:33:40;;;;;;;;;;;20.60;51.90;;;;;;8366484;28;20294;-45
2022/10/18 02:37:41;;;;;;;;;;;20.60;51.80;;;;;;8366576;28;19923;-45
2022/10/18 02:41:42;;;;;;;;;;;20.60;51.80;;;;;;8366338;28;20285;-44
2022/10/18 02:45:42;;;;;;;;;;;20.60;51.80;;;;;;8365779;28;19932;-44
2022/10/18 02:49:43;;;;;;;;;;;20.60;51.90;;;;;;8366087;28;19913;-44
2022/10/18 02:53:43;;;;;;;;;;;20.60;51.90;;;;;;8366292;28;19917;-43
2022/10/18 02:57:44;;;;;;;;;;;20.60;51.90;;;;;;8365501;28;19917;-46
2022/10/18 03:01:44;;;;;;;;;;;20.60;51.90;;;;;;8365734;28;20404;-44
2022/10/18 03:05:47;;;;;;;;;;;20.60;51.90;;;;;;8364930;28;20294;-44
2022/10/18 03:09:48;;;;;;;;;;;20.60;51.90;;;;;;8365444;28;19924;-44
2022/10/18 03:13:49;;;;;;;;;;;20.60;51.90;;;;;;8366042;28;19917;-43
2022/10/18 03:17:50;;;;;;;;;;;20.60;51.90;;;;;;8364859;28;20004;-44
2022/10/18 03:21:50;;;;;;;;;;;20.50;51.90;;;;;;8364972;28;20365;-45
2022/10/18 03:25:51;;;;;;;;;;;20.50;51.90;;;;;;8364725;28;19968;-44
2022/10/18 03:29:51;;;;;;;;;;;20.60;51.80;;;;;;8364326;28;19916;-44
2022/10/18 03:33:52;;;;;;;;;;;20.50;51.80;;;;;;8364911;28;20373;-45
2022/10/18 03:37:52;;;;;;;;;;;20.50;51.80;;;;;;8364788;28;19921;-45
2022/10/18 03:41:52;;;;;;;;;;;20.50;51.80;;;;;;8364710;28;19948;-46
2022/10/18 03:45:53;;;;;;;;;;;20.50;51.80;;;;;;8364349;28;19929;-45
2022/10/18 03:49:53;;;;;;;;;;;20.50;51.80;;;;;;8364229;28;19924;-46
2022/10/18 03:53:54;;;;;;;;;;;20.50;51.80;;;;;;8362670;28;19913;-44
2022/10/18 03:57:54;;;;;;;;;;;20.50;51.80;;;;;;8364003;28;19966;-44
2022/10/18 04:01:55;;;;;;;;;;;20.50;51.80;;;;;;8363921;28;19920;-44
2022/10/18 04:05:55;;;;;;;;;;;20.50;51.80;;;;;;8362196;28;20388;-45
2022/10/18 04:09:56;;;;;;;;;;;20.50;51.80;;;;;;8363557;28;19920;-43
2022/10/18 04:13:56;;;;;;;;;;;20.50;51.80;;;;;;8363849;28;19967;-44
2022/10/18 04:17:57;;;;;;;;;;;20.50;51.70;;;;;;8363180;28;20397;-44
2022/10/18 04:21:57;;;;;;;;;;;20.50;51.80;;;;;;8363480;28;20415;-44
2022/10/18 04:25:58;;;;;;;;;;;20.50;51.90;;;;;;8363451;28;20380;-43
2022/10/18 04:29:58;;;;;;;;;;;20.40;51.80;;;;;;8362393;28;19912;-45
2022/10/18 04:33:59;;;;;;;;;;;20.50;51.80;;;;;;8363774;28;19913;-43
2022/10/18 04:37:59;;;;;;;;;;;20.50;51.80;;;;;;8363424;28;19917;-44
2022/10/18 04:42:00;;;;;;;;;;;20.50;51.90;;;;;;8362848;28;20293;-43
2022/10/18 04:46:00;;;;;;;;;;;20.40;51.80;;;;;;8363041;28;19983;-44
2022/10/18 04:50:00;;;;;;;;;;;20.40;51.90;;;;;;8363039;28;19917;-43
2022/10/18 04:54:01;;;;;;;;;;;20.40;51.90;;;;;;8362947;28;19924;-44
2022/10/18 04:58:01;;;;;;;;;;;20.40;51.80;;;;;;8362859;28;19917;-44
2022/10/18 05:02:02;;;;;;;;;;;20.40;51.80;;;;;;8362970;28;19963;-44
2022/10/18 05:06:04;;;;;;;;;;;20.40;51.80;;;;;;8362293;28;19929;-44
2022/10/18 05:10:04;;;;;;;;;;;20.40;51.80;;;;;;8362940;28;20293;-44
2022/10/18 05:14:05;;;;;;;;;;;20.40;51.80;;;;;;8362691;28;19999;-44
2022/10/18 05:18:05;;;;;;;;;;;20.40;51.80;;;;;;8362215;28;20428;-44
2022/10/18 05:22:06;;;;;;;;;;;20.30;51.70;;;;;;8362654;28;19963;-45
2022/10/18 05:26:07;;;;;;;;;;;20.40;51.80;;;;;;8362407;28;19931;-45
2022/10/18 05:30:08;;;;;;;;;;;20.40;51.80;;;;;;8362224;28;20273;-43
2022/10/18 05:34:08;;;;;;;;;;;20.40;51.70;;;;;;8362242;28;19917;-44
2022/10/18 05:38:09;;;;;;;;;;;20.40;51.70;;;;;;8362432;28;19940;-43
2022/10/18 05:42:10;;;;;;;;;;;20.30;51.70;;;;;;8364251;28;20058;-43
2022/10/18 05:46:11;;;;;;;;;;;20.40;51.70;;;;;;8367891;28;19924;-43
2022/10/18 05:50:12;;;;;;;;;;;20.40;51.80;;;;;;8368219;28;19962;-43
2022/10/18 05:54:12;;;;;;;;;;;20.30;51.70;;;;;;8367297;28;19917;-43
2022/10/18 05:58:13;;;;;;;;;;;20.40;51.80;;;;;;8367537;28;20338;-43
2022/10/18 06:02:13;;;;;;;;;;;20.30;51.80;;;;;;8367607;28;19970;-45
2022/10/18 06:06:14;;;;;;;;;;;20.30;51.80;;;;;;8367201;28;19924;-44
2022/10/18 06:10:14;;;;;;;;;;;20.30;51.80;;;;;;8367673;28;19913;-44
2022/10/18 06:14:15;;;;;;;;;;;20.30;51.80;;;;;;8367287;28;20381;-44
2022/10/18 06:18:15;;;;;;;;;;;20.40;52.40;;;;;;8366776;28;20377;-44
2022/10/18 06:22:16;;;;;;;;;;;20.30;51.80;;;;;;8367229;28;20008;-44
2022/10/18 06:26:16;;;;;;;;;;;20.30;51.80;;;;;;8366885;28;20378;-44
2022/10/18 06:30:17;;;;;;;;;;;20.30;51.70;;;;;;8366418;28;20007;-44
2022/10/18 06:34:17;;;;;;;;;;;20.30;51.70;;;;;;8366802;28;19927;-44
2022/10/18 06:38:18;;;;;;;;;;;20.30;51.70;;;;;;8366560;28;19924;-44
2022/10/18 06:42:18;;;;;;;;;;;20.30;51.70;;;;;;8366031;28;19917;-44
2022/10/18 06:46:19;;;;;;;;;;;20.30;51.70;;;;;;8366344;28;19925;-44
2022/10/18 06:50:19;;;;;;;;;;;20.30;51.70;;;;;;8366184;28;20361;-43
2022/10/18 06:54:19;;;;;;;;;;;20.30;51.70;;;;;;8364927;28;19916;-44
2022/10/18 06:58:20;;;;;;;;;;;20.30;51.70;;;;;;8365987;28;20322;-44
2022/10/18 07:02:20;;;;;;;;;;;20.30;51.70;;;;;;8364757;28;19921;-44
2022/10/18 07:06:21;;;;;;;;;;;20.30;51.60;;;;;;8364883;28;19933;-44
2022/10/18 07:10:22;;;;;;;;;;;20.30;51.70;;;;;;8365633;28;19916;-44
2022/10/18 07:14:23;;;;;;;;;;;20.30;51.70;;;;;;8365431;28;20328;-45
2022/10/18 07:18:23;;;;;;;;;;;20.30;51.60;;;;;;8364796;28;19966;-44
2022/10/18 07:22:24;;;;;;;;;;;20.30;51.70;;;;;;8365079;28;19916;-45
2022/10/18 07:26:26;;;;;;;;;;;20.30;51.60;;;;;;8363563;28;19925;-44
2022/10/18 07:30:26;;;;;;;;;;;20.30;51.60;;;;;;8364564;28;20005;-46
2022/10/18 07:34:27;;;;;;;;;;;20.30;51.60;;;;;;8364540;28;20385;-47
2022/10/18 07:38:28;;;;;;;;;;;20.40;51.60;;;;;;8364492;28;20054;-45
2022/10/18 07:42:28;;;;;;;;;;;20.40;51.60;;;;;;8364050;28;20271;-45
2022/10/18 07:46:29;;;;;;;;;;;20.40;51.60;;;;;;8364108;28;19937;-44
2022/10/18 07:50:29;;;;;;;;;;;20.30;51.40;;;;;;8364555;28;19966;-44
2022/10/18 07:54:30;;;;;;;;;;;20.40;51.50;;;;;;8363667;28;19917;-45
2022/10/18 07:58:31;;;;;;;;;;;20.40;51.50;;;;;;8364222;28;20012;-45
2022/10/18 08:02:31;;;;;;;;;;;20.40;51.50;;;;;;8363953;28;20266;-45
2022/10/18 08:06:32;;;;;;;;;;;20.40;51.50;;;;;;8362401;28;20015;-46
2022/10/18 08:10:33;;;;;;;;;;;20.30;51.50;;;;;;8364139;28;19917;-44
2022/10/18 08:14:34;;;;;;;;;;;20.40;51.60;;;;;;8363533;28;19923;-47
2022/10/18 08:18:35;;;;;;;;;;;20.40;51.60;;;;;;8363187;28;19917;-44
2022/10/18 08:22:35;;;;;;;;;;;20.40;51.60;;;;;;8363735;28;19974;-45
2022/10/18 08:26:36;;;;;;;;;;;20.30;51.60;;;;;;8363325;28;19925;-45
2022/10/18 08:30:36;;;;;;;;;;;20.40;51.60;;;;;;8363219;28;19924;-44
2022/10/18 08:34:37;;;;;;;;;;;20.40;51.60;;;;;;8363473;28;19948;-46
2022/10/18 08:38:38;;;;;;;;;;;20.40;51.60;;;;;;8363269;28;20313;-44
2022/10/18 08:42:44;;;;;;;;;;;20.40;51.60;;;;;;8362624;28;19971;-44
2022/10/18 08:46:45;;;;;;;;;;;20.40;51.60;;;;;;8362971;28;20392;-45
2022/10/18 08:50:47;;;;;;;;;;;20.40;51.60;;;;;;8362821;28;20018;-44
2022/10/18 08:55:06;;;;;;;;;;;20.40;51.60;;;;;;8362869;28;19917;-44
2022/10/18 08:59:10;;;;;;;;;;;20.40;51.60;;;;;;8362893;28;20258;-45
2022/10/18 09:03:11;;;;;;;;;;;20.40;51.60;;;;;;8362300;28;19921;-45
2022/10/18 09:07:29;;;;;;;;;;;20.40;51.60;;;;;;8362960;28;19929;-45
2022/10/18 09:11:41;;;;;;;;;;;20.40;51.60;;;;;;8362883;28;19924;-44
2022/10/18 09:15:48;;;;;;;;;;;20.40;51.60;;;;;;8363994;28;19920;-43
2022/10/18 09:19:59;;;;;;;;;;;20.50;51.60;;;;;;8368914;28;20031;-43
2022/10/18 09:24:18;;;;;;;;;;;20.40;51.60;;;;;;8368490;28;19919;-43
2022/10/18 09:28:27;;;;;;;;;;;20.50;51.60;;;;;;8368495;28;19944;-43
2022/10/18 09:32:31;;;;;;;;;;;20.50;51.70;;;;;;8368421;28;20005;-44
2022/10/18 09:36:34;;;;;;;;;;;20.50;51.60;;;;;;8368145;28;20267;-46
2022/10/18 09:40:49;;;;;;;;;;;20.50;51.70;;;;;;8368454;28;19923;-45
2022/10/18 09:44:52;;;;;;;;;;;20.50;51.60;;;;;;8367396;28;19913;-48
2022/10/18 09:49:01;;;;;;;;;;;20.50;51.60;;;;;;8367795;28;19924;-44
2022/10/18 09:53:18;;;;;;;;;;;20.50;51.60;;;;;;8367764;28;19924;-44
2022/10/18 09:57:36;;;;;;;;;;;20.50;51.60;;;;;;8367162;28;19917;-44
2022/10/18 10:01:36;;;;;;;;;;;20.50;51.60;;;;;;8367708;28;19916;-45
2022/10/18 10:05:37;;;;;;;;;;;20.50;51.60;;;;;;8343392;28;19932;-44
2022/10/18 10:09:44;;;;;;;;;;;20.50;51.60;;;;;;8354880;28;19924;-44
2022/10/18 10:13:47;;;;;;;;;;;20.60;51.60;;;;;;8367290;28;19913;-44
2022/10/18 10:17:54;;;;;;;;;;;20.60;51.60;;;;;;8366741;28;20018;-45
2022/10/18 10:21:59;;;;;;;;;;;20.60;51.50;;;;;;8367490;28;20007;-46
2022/10/18 10:26:01;;;;;;;;;;;20.60;51.50;;;;;;8366961;28;19977;-43
2022/10/18 10:30:03;;;;;;;;;;;20.60;51.50;;;;;;8365675;28;20306;-44
2022/10/18 10:34:04;;;;;;;;;;;20.60;51.50;;;;;;8366890;28;19920;-43
2022/10/18 10:38:06;;;;;;;;;;;20.70;51.50;;;;;;8366514;28;19913;-44
2022/10/18 10:42:11;;;;;;;;;;;20.70;51.50;;;;;;8366261;28;19928;-44
2022/10/18 10:46:13;;;;;;;;;;;20.70;51.50;;;;;;8366109;28;19929;-44
2022/10/18 10:50:21;;;;;;;;;;;20.70;52.00;;;;;;8366221;28;19917;-46
2022/10/18 10:54:22;;;;;;;;;;;20.70;51.50;;;;;;8365743;28;20317;-44
2022/10/18 10:58:25;;;;;;;;;;;20.70;51.40;;;;;;8365790;28;20008;-44
2022/10/18 11:02:29;;;;;;;;;;;20.70;51.50;;;;;;8365975;28;19924;-44
2022/10/18 11:06:29;;;;;;;;;;;20.70;51.40;;;;;;8365542;28;19929;-44
2022/10/18 11:10:33;;;;;;;;;;;20.70;51.50;;;;;;8365395;28;19917;-44
2022/10/18 11:14:37;;;;;;;;;;;20.70;51.40;;;;;;8365347;28;19913;-44
2022/10/18 11:18:39;;;;;;;;;;;20.70;51.40;;;;;;8364647;28;19920;-44
2022/10/18 11:22:52;;;;;;;;;;;20.80;51.40;;;;;;8365050;28;20004;-43
2022/10/18 11:26:58;;;;;;;;;;;20.80;51.40;;;;;;8364621;28;19928;-43
2022/10/18 11:31:31;;;;;;;;;;;20.80;51.50;;;;;;8364780;28;19916;-44
2022/10/18 11:35:34;;;;;;;;;;;20.80;51.50;;;;;;8352591;28;19979;-44
2022/10/18 11:39:40;;;;;;;;;;;20.80;51.50;;;;;;8364043;28;19916;-43
2022/10/18 11:43:50;;;;;;;;;;;20.80;51.40;;;;;;8364436;28;20014;-44
2022/10/18 11:47:55;;;;;;;;;;;20.80;51.50;;;;;;8363933;28;20004;-44
2022/10/18 11:52:01;;;;;;;;;;;20.80;51.40;;;;;;8364421;28;20274;-45
2022/10/18 11:56:20;;;;;;;;;;;20.80;51.60;;;;;;8364089;28;19927;-43
2022/10/18 12:00:26;;;;;;;;;;;20.90;51.50;;;;;;8363505;28;20378;-44
2022/10/18 12:04:32;;;;;;;;;;;20.90;51.60;;;;;;8363712;28;19921;-43
2022/10/18 12:08:36;;;;;;;;;;;20.90;51.50;;;;;;8363901;28;20004;-45
2022/10/18 12:12:44;;;;;;;;;;;20.90;51.50;;;;;;8387246;28;21975;-44
2022/10/18 12:16:45;;;;;;;;;;;20.90;51.50;;;;;;8362263;28;20003;-44
2022/10/18 12:20:46;;;;;;;;;;;20.90;51.40;;;;;;8363119;28;19913;-43
2022/10/18 12:24:47;;;;;;;;;;;21.00;51.40;;;;;;8364036;28;20317;-43
2022/10/18 12:28:50;;;;;;;;;;;21.00;51.40;;;;;;8363276;28;19928;-43
2022/10/18 12:32:54;;;;;;;;;;;20.90;51.30;;;;;;8363209;28;19923;-43
2022/10/18 12:37:11;;;;;;;;;;;21.00;51.30;;;;;;8362876;28;19996;-43
2022/10/18 12:41:22;;;;;;;;;;;21.00;51.30;;;;;;8364997;28;19956;-43
2022/10/18 12:45:33;;;;;;;;;;;21.00;51.30;;;;;;8362368;28;20003;-45
2022/10/18 12:49:35;;;;;;;;;;;21.00;51.30;;;;;;8363127;28;20329;-46
2022/10/18 12:53:35;;;;;;;;;;;21.00;51.40;;;;;;8369592;28;20006;-44
2022/10/18 12:57:59;;;;;;;;;;;21.00;51.30;;;;;;8369245;28;19912;-44
2022/10/18 13:01:59;;;;;;;;;;;21.00;51.30;;;;;;8369477;28;19917;-46
2022/10/18 13:06:00;;;;;;;;;;;21.00;51.30;;;;;;8368859;28;20381;-45
2022/10/18 13:10:11;;;;;;;;;;;21.00;51.30;;;;;;8368008;28;19917;-43
2022/10/18 13:14:30;;;;;;;;;;;21.00;51.30;;;;;;8369109;28;19923;-45
2022/10/18 13:18:36;;;;;;;;;;;21.00;51.30;;;;;;8368460;28;19924;-45
2022/10/18 13:23:00;;;;;;;;;;;21.10;51.40;;;;;;8369178;28;19941;-45
2022/10/18 13:27:03;;;;;;;;;;;21.00;51.50;;;;;;8364777;28;19931;-44
2022/10/18 13:31:10;;;;;;;;;;;21.00;51.40;;;;;;8367996;28;19970;-45
2022/10/18 13:35:29;;;;;;;;;;;21.00;51.40;;;;;;8367823;28;19920;-44
2022/10/18 13:39:31;;;;;;;;;;;21.10;51.30;;;;;;8367719;28;19979;-44
2022/10/18 13:43:53;;;;;;;;;;;21.10;51.30;;;;;;8368497;28;20016;-42
2022/10/18 13:47:54;;;;;;;;;;;21.20;51.20;;;;;;8367313;28;20374;-43
2022/10/18 13:52:13;;;;;;;;;;;21.20;51.00;;;;;;8367468;28;19921;-44
2022/10/18 13:56:28;;;;;;;;;;;21.30;51.00;;;;;;8367475;28;20330;-44
2022/10/18 14:00:45;;;;;;;;;;;21.20;51.00;;;;;;8367120;28;19974;-48
2022/10/18 14:04:54;;;;;;;;;;;21.20;51.10;;;;;;8347642;28;19921;-45
2022/10/18 14:08:59;;;;;;;;;;;21.20;51.10;;;;;;8369184;28;19924;-44
2022/10/18 14:13:01;;;;;;;;;;;21.20;51.20;;;;;;8367890;28;19913;-46
2022/10/18 14:17:21;;;;;;;;;;;21.20;51.40;;;;;;8366976;28;19997;-48
2022/10/18 14:21:23;;;;;;;;;;;21.20;51.30;;;;;;8366365;28;19917;-45
2022/10/18 14:25:31;;;;;;;;;;;21.20;51.40;;;;;;8367048;28;19917;-46
2022/10/18 14:29:31;;;;;;;;;;;21.10;51.30;;;;;;8366470;28;19925;-44
2022/10/18 14:33:36;;;;;;;;;;;21.10;51.20;;;;;;8366505;28;19951;-45
2022/10/18 14:37:37;;;;;;;;;;;21.20;51.30;;;;;;8366780;28;20009;-45
2022/10/18 14:41:46;;;;;;;;;;;21.20;51.30;;;;;;8366444;28;19924;-43
2022/10/18 14:45:46;;;;;;;;;;;21.20;51.30;;;;;;8365627;28;20007;-44
2022/10/18 14:49:47;;;;;;;;;;;21.20;51.20;;;;;;8366291;28;20329;-45
2022/10/18 14:53:48;;;;;;;;;;;21.20;51.20;;;;;;8365811;28;20362;-46
2022/10/18 14:57:48;;;;;;;;;;;21.20;51.20;;;;;;8365928;28;20373;-45
2022/10/18 15:01:57;;;;;;;;;;;21.20;51.30;;;;;;8365734;28;20419;-44
2022/10/18 15:05:59;;;;;;;;;;;21.20;51.20;;;;;;8365386;28;19928;-46
2022/10/18 15:10:02;;;;;;;;;;;21.20;51.30;;;;;;8365813;28;20324;-45
2022/10/18 15:14:07;;;;;;;;;;;21.20;51.20;;;;;;8365303;28;19913;-52
2022/10/18 15:18:14;;;;;;;;;;;21.20;51.20;;;;;;8365102;28;19917;-47
2022/10/18 15:22:20;;;;;;;;;;;21.20;51.10;;;;;;8365313;28;19917;-43
2022/10/18 15:26:26;;;;;;;;;;;21.20;51.10;;;;;;8364982;28;20008;-44
2022/10/18 15:30:37;;;;;;;;;;;21.20;51.10;;;;;;8364614;28;19943;-44
2022/10/18 15:34:37;;;;;;;;;;;21.20;51.10;;;;;;8365298;28;19924;-45
2022/10/18 15:38:38;;;;;;;;;;;21.20;51.70;;;;;;8364856;28;19913;-44
2022/10/18 15:42:38;;;;;;;;;;;21.20;51.20;;;;;;8364074;28;19923;-45
2022/10/18 15:46:39;;;;;;;;;;;21.30;51.20;;;;;;8364287;28;19924;-45
2022/10/18 15:50:39;;;;;;;;;;;21.20;51.30;;;;;;8364262;28;19917;-44
2022/10/18 15:54:40;;;;;;;;;;;21.30;51.30;;;;;;8363671;28;19913;-45
2022/10/18 15:58:47;;;;;;;;;;;21.20;51.30;;;;;;8364460;28;19956;-44
2022/10/18 16:02:48;;;;;;;;;;;21.20;51.30;;;;;;8363474;28;20293;-45
2022/10/18 16:06:48;;;;;;;;;;;21.30;51.30;;;;;;8363681;28;19971;-44
2022/10/18 16:10:49;;;;;;;;;;;21.20;51.30;;;;;;8362852;28;20018;-44
2022/10/18 16:14:49;;;;;;;;;;;21.20;51.30;;;;;;8361853;28;19913;-44
2022/10/18 16:18:50;;;;;;;;;;;21.20;51.30;;;;;;8364383;28;20372;-45
2022/10/18 16:22:51;;;;;;;;;;;21.20;51.30;;;;;;8363724;28;20281;-44
2022/10/18 16:26:52;;;;;;;;;;;21.20;51.30;;;;;;8362167;28;20301;-44
2022/10/18 16:30:53;;;;;;;;;;;21.20;51.30;;;;;;8363604;28;19921;-44
2022/10/18 16:34:53;;;;;;;;;;;21.20;51.40;;;;;;8363427;28;19917;-46
2022/10/18 16:38:54;;;;;;;;;;;21.20;51.40;;;;;;8362843;28;19995;-44
2022/10/18 16:42:54;;;;;;;;;;;21.20;51.50;;;;;;8363100;28;19925;-46
2022/10/18 16:46:55;;;;;;;;;;;21.20;51.50;;;;;;8362991;28;19936;-45
2022/10/18 16:50:55;;;;;;;;;;;21.20;51.50;;;;;;8361014;28;19920;-44
2022/10/18 16:54:56;;;;;;;;;;;21.10;51.50;;;;;;8363630;28;19924;-44
2022/10/18 16:58:57;;;;;;;;;;;21.10;52.80;;;;;;8357224;28;19917;-43
2022/10/18 17:02:57;;;;;;;;;;;21.10;52.50;;;;;;8355680;28;19917;-44
2022/10/18 17:06:58;;;;;;;;;;;21.10;52.70;;;;;;8360256;28;19928;-45
2022/10/18 17:11:00;;;;;;;;;;;21.20;52.70;;;;;;8355457;28;19920;-45
2022/10/18 17:15:00;;;;;;;;;;;21.30;52.70;;;;;;8356443;28;19959;-47
2022/10/18 17:19:03;;;;;;;;;;;21.30;52.60;;;;;;8336420;28;20331;-45
2022/10/18 17:23:03;;;;;;;;;;;21.30;52.60;;;;;;8336714;28;20002;-45
2022/10/18 17:27:04;;;;;;;;;;;21.30;52.60;;;;;;8361681;28;22476;-45
2022/10/18 17:31:06;;;;;;;;;;;21.40;52.60;;;;;;8373594;28;19939;-45
2022/10/18 17:35:06;;;;;;;;;;;21.40;52.60;;;;;;8395638;28;20327;-45
2022/10/18 17:39:08;;;;;;;;;;;21.40;52.50;;;;;;8400519;28;19999;-43
2022/10/18 17:43:09;;;;;;;;;;;21.40;52.40;;;;;;8387643;28;19928;-45
2022/10/18 17:47:09;;;;;;;;;;;21.40;52.20;;;;;;8336225;28;20293;-47
2022/10/18 17:51:11;;;;;;;;;;;21.50;52.40;;;;;;8342840;28;19917;-45
2022/10/18 17:55:12;;;;;;;;;;;21.50;52.40;;;;;;8368179;28;19913;-45
2022/10/18 17:59:13;;;;;;;;;;;21.50;52.40;;;;;;8367750;28;19921;-45
2022/10/18 18:03:13;;;;;;;;;;;21.50;52.30;;;;;;8367076;28;20007;-44
2022/10/18 18:07:14;;;;;;;;;;;21.50;52.30;;;;;;8367900;28;19940;-44
2022/10/18 18:11:15;;;;;;;;;;;21.50;52.20;;;;;;8367750;28;19956;-45
2022/10/18 18:15:15;;;;;;;;;;;21.50;52.40;;;;;;8366011;28;20285;-46
2022/10/18 18:19:18;;;;;;;;;;;21.50;52.50;;;;;;8359951;28;20000;-47
2022/10/18 18:23:19;;;;;;;;;;;21.50;52.30;;;;;;8342477;28;19917;-45
2022/10/18 18:27:20;;;;;;;;;;;21.50;52.20;;;;;;8333445;28;20294;-44
2022/10/18 18:31:23;;;;;;;;;;;21.40;52.20;;;;;;8333902;28;20381;-42
2022/10/18 18:35:24;;;;;;;;;;;21.40;52.30;;;;;;8355999;28;19917;-43
2022/10/18 18:39:28;;;;;;;;;;;21.30;52.50;;;;;;8362874;28;20409;-42
2022/10/18 18:43:28;;;;;;;;;;;21.30;52.60;;;;;;8347097;28;19928;-47
2022/10/18 18:47:29;;;;;;;;;;;21.30;53.40;;;;;;8351159;28;20286;-44
2022/10/18 18:51:30;;;;;;;;;;;21.40;53.60;;;;;;8360930;28;20022;-45
2022/10/18 18:55:31;;;;;;;;;;;21.50;53.50;;;;;;8362447;28;19962;-45
2022/10/18 18:59:32;;;;;;;;;;;21.60;53.40;;;;;;8363357;28;20374;-46
2022/10/18 19:03:32;;;;;;;;;;;21.70;53.40;;;;;;8361511;28;19964;-45
2022/10/18 19:07:33;;;;;;;;;;;21.70;53.30;;;;;;8361250;28;20390;-47
2022/10/18 19:11:36;;;;;;;;;;;21.80;53.30;;;;;;8356404;28;20004;-45
2022/10/18 19:15:37;;;;;;;;;;;21.80;53.30;;;;;;8365902;28;20503;-44
2022/10/18 19:19:39;;;;;;;;;;;21.90;53.30;;;;;;8362184;28;19921;-46
2022/10/18 19:23:40;;;;;;;;;;;21.90;53.40;;;;;;8358491;28;19916;-47
2022/10/18 19:27:40;;;;;;;;;;;21.90;53.30;;;;;;8361499;28;19987;-45
2022/10/18 19:31:41;;;;;;;;;;;21.90;53.30;;;;;;8359337;28;19924;-44
2022/10/18 19:35:42;;;;;;;;;;;22.00;53.40;;;;;;8360959;28;20366;-44
2022/10/18 19:39:42;;;;;;;;;;;22.00;53.50;;;;;;8360726;28;19921;-44
2022/10/18 19:43:43;;;;;;;;;;;22.00;53.40;;;;;;8349029;28;19921;-45
2022/10/18 19:47:43;;;;;;;;;;;22.10;53.40;;;;;;8364582;28;19925;-45
2022/10/18 19:51:44;;;;;;;;;;;22.10;53.40;;;;;;8349404;28;19924;-45
2022/10/18 19:55:44;;;;;;;;;;;22.10;53.40;;;;;;8360519;28;19917;-45
2022/10/18 19:59:45;;;;;;;;;;;22.10;53.50;;;;;;8359989;28;19917;-44
2022/10/18 20:03:45;;;;;;;;;;;22.10;53.40;;;;;;8358685;28;19921;-47
2022/10/18 20:07:46;;;;;;;;;;;22.20;53.40;;;;;;8348630;28;19925;-45
2022/10/18 20:11:46;;;;;;;;;;;22.20;53.40;;;;;;8359262;28;20362;-46
2022/10/18 20:15:48;;;;;;;;;;;22.20;53.50;;;;;;8360778;28;19924;-46
2022/10/18 20:19:48;;;;;;;;;;;22.20;53.60;;;;;;8365043;28;19922;-46
2022/10/18 20:23:49;;;;;;;;;;;22.30;53.70;;;;;;8354269;28;20006;-46
2022/10/18 20:27:50;;;;;;;;;;;22.30;53.70;;;;;;8358996;28;20344;-45
2022/10/18 20:31:54;;;;;;;;;;;22.30;53.70;;;;;;8360132;28;20030;-45
2022/10/18 20:35:54;;;;;;;;;;;22.30;53.60;;;;;;8352775;28;19917;-44
2022/10/18 20:39:55;;;;;;;;;;;22.40;53.60;;;;;;8357576;28;19938;-45
2022/10/18 20:43:59;;;;;;;;;;;22.30;53.70;;;;;;8343005;28;19937;-46
2022/10/18 20:47:59;;;;;;;;;;;22.30;53.80;;;;;;8360433;28;19956;-48
2022/10/18 20:52:00;;;;;;;;;;;22.30;53.80;;;;;;8360276;28;19933;-45
2022/10/18 20:56:01;;;;;;;;;;;22.30;53.20;;;;;;8383327;28;19920;-45
2022/10/18 21:00:02;;;;;;;;;;;22.00;51.60;;;;;;8346177;28;19965;-50
2022/10/18 21:04:04;;;;;;;;;;;21.80;53.00;;;;;;8384965;28;19951;-47
2022/10/18 21:08:04;;;;;;;;;;;21.80;54.20;;;;;;8356463;28;20449;-48
2022/10/18 21:12:04;;;;;;;;;;;21.90;53.40;;;;;;8353012;28;19979;-44
2022/10/18 21:16:06;;;;;;;;;;;22.00;53.50;;;;;;8349285;28;19924;-44
2022/10/18 21:20:07;;;;;;;;;;;22.10;53.50;;;;;;8361815;28;19921;-44
2022/10/18 21:24:08;;;;;;;;;;;22.20;53.40;;;;;;8357201;28;19917;-43
2022/10/18 21:28:08;;;;;;;;;;;22.30;53.40;;;;;;8364580;28;19960;-44
2022/10/18 21:32:08;;;;;;;;;;;22.30;53.50;;;;;;8346651;28;19960;-45
2022/10/18 21:36:09;;;;;;;;;;;22.40;53.60;;;;;;8343464;28;19924;-46
2022/10/18 21:40:10;;;;;;;;;;;22.30;53.50;;;;;;8337321;28;19925;-44
2022/10/18 21:44:11;;;;;;;;;;;22.40;53.60;;;;;;8343853;28;20014;-43
2022/10/18 21:48:11;;;;;;;;;;;22.40;53.60;;;;;;8369407;28;19925;-43
2022/10/18 21:52:12;;;;;;;;;;;22.40;53.90;;;;;;8365595;28;19917;-43
2022/10/18 21:56:14;;;;;;;;;;;22.40;53.60;;;;;;8366044;28;19920;-44
2022/10/18 22:00:14;;;;;;;;;;;22.30;53.50;;;;;;8365688;28;19917;-43
2022/10/18 22:04:20;;;;;;;;;;;22.30;53.40;;;;;;8353852;28;20337;-44
2022/10/18 22:08:20;;;;;;;;;;;22.30;53.30;;;;;;8346717;28;19921;-42
2022/10/18 22:12:21;;;;;;;;;;;22.20;53.30;;;;;;8366906;28;19917;-44
2022/10/18 22:16:21;;;;;;;;;;;22.20;53.50;;;;;;8366199;28;19920;-45
2022/10/18 22:20:22;;;;;;;;;;;22.10;53.20;;;;;;8367130;28;19963;-43
2022/10/18 22:24:22;;;;;;;;;;;22.10;53.10;;;;;;8365569;28;20366;-44
2022/10/18 22:28:23;;;;;;;;;;;22.10;53.10;;;;;;8366858;28;19964;-43
2022/10/18 22:32:23;;;;;;;;;;;22.10;53.00;;;;;;8366908;28;20002;-44
2022/10/18 22:36:24;;;;;;;;;;;22.00;53.00;;;;;;8366591;28;19913;-44
2022/10/18 22:40:24;;;;;;;;;;;22.00;53.00;;;;;;8366733;28;19917;-44
2022/10/18 22:44:25;;;;;;;;;;;22.00;52.90;;;;;;8366401;28;20374;-43
2022/10/18 22:48:25;;;;;;;;;;;22.00;53.00;;;;;;8365787;28;19976;-43
2022/10/18 22:52:25;;;;;;;;;;;21.90;52.90;;;;;;8364926;28;19913;-44
2022/10/18 22:56:26;;;;;;;;;;;22.00;52.90;;;;;;8366231;28;19913;-43
2022/10/18 23:00:26;;;;;;;;;;;21.90;52.90;;;;;;8365478;28;19916;-43
2022/10/18 23:04:27;;;;;;;;;;;21.90;52.90;;;;;;8365745;28;19921;-42
2022/10/18 23:08:28;;;;;;;;;;;21.90;52.90;;;;;;8365530;28;19925;-42
2022/10/18 23:12:28;;;;;;;;;;;21.90;52.90;;;;;;8365353;28;19921;-43
2022/10/18 23:16:28;;;;;;;;;;;21.90;52.80;;;;;;8365962;28;20341;-43
2022/10/18 23:20:29;;;;;;;;;;;21.80;52.80;;;;;;8365477;28;19924;-43
2022/10/18 23:24:29;;;;;;;;;;;21.80;52.80;;;;;;8364833;28;19916;-44
2022/10/18 23:28:37;;;;;;;;;;;21.80;52.80;;;;;;8365020;28;19924;-43
2022/10/18 23:32:37;;;;;;;;;;;21.80;52.80;;;;;;8365100;28;19916;-43